sensor_id;sensor_type;location;lat;lon;timestamp;P1;durP1;ratioP1;P2;durP2;ratioP2
20203;SDS011;10261;49.010;12.034;2023-04-25T00:00:51;1.40;;;1.20;;
20203;SDS011;10261;49.010;12.034;2023-04-25T00:01:53;2.58;;;1.88;;
20203;SDS011;10261;49.010;12.034;2023-04-25T00:02:57;1.85;;;1.15;;
20203;SDS011;10261;49.010;12.034;2023-04-25T00:04:01;1.50;;;1.20;;
20203;SDS011;10261;49.010;12.034;2023-04-25T00:05:04;3.28;;;1.55;;
20203;SDS011;10261;49.010;12.034;2023-04-25T00:06:08;1.20;;;1.10;;
20203;SDS011;10261;49.010;12.034;2023-04-25T00:07:10;3.55;;;1.75;;
20203;SDS011;10261;49.010;12.034;2023-04-25T00:08:15;2.47;;;1.52;;
20203;SDS011;10261;49.010;12.034;2023-04-25T00:09:17;2.25;;;1.40;;
20203;SDS011;10261;49.010;12.034;2023-04-25T00:10:20;3.70;;;1.65;;
20203;SDS011;10261;49.010;12.034;2023-04-25T00:11:22;1.30;;;1.20;;
20203;SDS011;10261;49.010;12.034;2023-04-25T00:12:25;5.22;;;1.50;;
20203;SDS011;10261;49.010;12.034;2023-04-25T00:13:29;5.57;;;1.15;;
20203;SDS011;10261;49.010;12.034;2023-04-25T00:14:32;3.30;;;1.40;;
20203;SDS011;10261;49.010;12.034;2023-04-25T00:15:35;1.50;;;1.10;;
20203;SDS011;10261;49.010;12.034;2023-04-25T00:16:39;1.80;;;1.55;;
20203;SDS011;10261;49.010;12.034;2023-04-25T00:17:56;1.75;;;1.23;;
20203;SDS011;10261;49.010;12.034;2023-04-25T00:18:59;1.60;;;1.20;;
20203;SDS011;10261;49.010;12.034;2023-04-25T00:20:01;1.98;;;1.25;;
20203;SDS011;10261;49.010;12.034;2023-04-25T00:21:09;4.63;;;1.10;;
20203;SDS011;10261;49.010;12.034;2023-04-25T00:22:11;1.50;;;1.20;;
20203;SDS011;10261;49.010;12.034;2023-04-25T00:23:16;5.68;;;1.40;;
20203;SDS011;10261;49.010;12.034;2023-04-25T00:24:19;1.98;;;1.30;;
20203;SDS011;10261;49.010;12.034;2023-04-25T00:25:22;2.20;;;1.42;;
20203;SDS011;10261;49.010;12.034;2023-04-25T00:26:24;3.65;;;1.80;;
20203;SDS011;10261;49.010;12.034;2023-04-25T00:27:27;2.95;;;1.45;;
20203;SDS011;10261;49.010;12.034;2023-04-25T00:28:29;2.70;;;1.30;;
20203;SDS011;10261;49.010;12.034;2023-04-25T00:29:32;1.42;;;1.33;;
20203;SDS011;10261;49.010;12.034;2023-04-25T00:30:35;1.95;;;1.60;;
20203;SDS011;10261;49.010;12.034;2023-04-25T00:31:38;1.70;;;1.48;;
20203;SDS011;10261;49.010;12.034;2023-04-25T00:32:40;1.98;;;1.35;;
20203;SDS011;10261;49.010;12.034;2023-04-25T00:33:43;3.67;;;1.65;;
20203;SDS011;10261;49.010;12.034;2023-04-25T00:34:45;3.55;;;1.80;;
20203;SDS011;10261;49.010;12.034;2023-04-25T00:35:48;2.17;;;1.60;;
20203;SDS011;10261;49.010;12.034;2023-04-25T00:36:50;1.70;;;1.50;;
20203;SDS011;10261;49.010;12.034;2023-04-25T00:37:53;1.70;;;1.33;;
20203;SDS011;10261;49.010;12.034;2023-04-25T00:38:57;2.13;;;1.40;;
20203;SDS011;10261;49.010;12.034;2023-04-25T00:40:00;1.92;;;1.60;;
20203;SDS011;10261;49.010;12.034;2023-04-25T00:41:02;3.70;;;1.50;;
20203;SDS011;10261;49.010;12.034;2023-04-25T00:42:06;3.88;;;1.60;;
20203;SDS011;10261;49.010;12.034;2023-04-25T00:43:09;2.40;;;1.70;;
20203;SDS011;10261;49.010;12.034;2023-04-25T00:44:12;1.58;;;1.35;;
20203;SDS011;10261;49.010;12.034;2023-04-25T00:45:14;1.52;;;1.38;;
20203;SDS011;10261;49.010;12.034;2023-04-25T00:46:17;1.65;;;1.50;;
20203;SDS011;10261;49.010;12.034;2023-04-25T00:47:19;2.67;;;1.73;;
20203;SDS011;10261;49.010;12.034;2023-04-25T00:48:23;1.60;;;1.50;;
20203;SDS011;10261;49.010;12.034;2023-04-25T00:49:26;7.70;;;2.13;;
20203;SDS011;10261;49.010;12.034;2023-04-25T00:50:28;1.90;;;1.75;;
20203;SDS011;10261;49.010;12.034;2023-04-25T00:51:31;1.83;;;1.67;;
20203;SDS011;10261;49.010;12.034;2023-04-25T00:52:35;2.08;;;1.88;;
20203;SDS011;10261;49.010;12.034;2023-04-25T00:53:38;2.00;;;1.80;;
20203;SDS011;10261;49.010;12.034;2023-04-25T00:54:43;6.95;;;2.15;;
20203;SDS011;10261;49.010;12.034;2023-04-25T00:55:45;1.40;;;1.20;;
20203;SDS011;10261;49.010;12.034;2023-04-25T00:56:48;2.30;;;1.90;;
20203;SDS011;10261;49.010;12.034;2023-04-25T00:57:50;2.10;;;1.60;;
20203;SDS011;10261;49.010;12.034;2023-04-25T00:58:53;4.03;;;1.75;;
20203;SDS011;10261;49.010;12.034;2023-04-25T00:59:56;3.45;;;1.98;;
20203;SDS011;10261;49.010;12.034;2023-04-25T01:01:00;4.43;;;1.67;;
20203;SDS011;10261;49.010;12.034;2023-04-25T01:02:03;4.38;;;2.40;;
20203;SDS011;10261;49.010;12.034;2023-04-25T01:03:06;3.45;;;2.20;;
20203;SDS011;10261;49.010;12.034;2023-04-25T01:04:09;2.05;;;1.85;;
20203;SDS011;10261;49.010;12.034;2023-04-25T01:05:12;3.03;;;1.95;;
20203;SDS011;10261;49.010;12.034;2023-04-25T01:06:14;1.80;;;1.70;;
20203;SDS011;10261;49.010;12.034;2023-04-25T01:07:18;2.50;;;1.98;;
20203;SDS011;10261;49.010;12.034;2023-04-25T01:08:21;3.08;;;1.92;;
20203;SDS011;10261;49.010;12.034;2023-04-25T01:09:26;1.77;;;1.55;;
20203;SDS011;10261;49.010;12.034;2023-04-25T01:10:32;2.25;;;1.75;;
20203;SDS011;10261;49.010;12.034;2023-04-25T01:11:35;3.63;;;1.92;;
20203;SDS011;10261;49.010;12.034;2023-04-25T01:12:38;3.50;;;2.10;;
20203;SDS011;10261;49.010;12.034;2023-04-25T01:13:41;2.85;;;1.85;;
20203;SDS011;10261;49.010;12.034;2023-04-25T01:14:43;3.30;;;2.25;;
20203;SDS011;10261;49.010;12.034;2023-04-25T01:15:46;2.25;;;1.63;;
20203;SDS011;10261;49.010;12.034;2023-04-25T01:16:48;1.92;;;1.77;;
20203;SDS011;10261;49.010;12.034;2023-04-25T01:17:52;2.50;;;2.30;;
20203;SDS011;10261;49.010;12.034;2023-04-25T01:18:54;2.33;;;2.03;;
20203;SDS011;10261;49.010;12.034;2023-04-25T01:19:57;2.25;;;1.90;;
20203;SDS011;10261;49.010;12.034;2023-04-25T01:21:07;2.35;;;1.85;;
20203;SDS011;10261;49.010;12.034;2023-04-25T01:22:11;3.35;;;1.52;;
20203;SDS011;10261;49.010;12.034;2023-04-25T01:23:13;2.75;;;2.13;;
20203;SDS011;10261;49.010;12.034;2023-04-25T01:24:16;2.70;;;2.10;;
20203;SDS011;10261;49.010;12.034;2023-04-25T01:25:18;2.10;;;1.80;;
20203;SDS011;10261;49.010;12.034;2023-04-25T01:26:21;2.35;;;2.15;;
20203;SDS011;10261;49.010;12.034;2023-04-25T01:27:24;2.40;;;2.20;;
20203;SDS011;10261;49.010;12.034;2023-04-25T01:28:28;3.25;;;1.67;;
20203;SDS011;10261;49.010;12.034;2023-04-25T01:29:31;3.03;;;2.58;;
20203;SDS011;10261;49.010;12.034;2023-04-25T01:30:34;3.75;;;2.80;;
20203;SDS011;10261;49.010;12.034;2023-04-25T01:31:37;4.57;;;1.92;;
20203;SDS011;10261;49.010;12.034;2023-04-25T01:32:40;1.95;;;1.75;;
20203;SDS011;10261;49.010;12.034;2023-04-25T01:33:43;2.78;;;1.73;;
20203;SDS011;10261;49.010;12.034;2023-04-25T01:34:46;2.50;;;2.15;;
20203;SDS011;10261;49.010;12.034;2023-04-25T01:35:48;1.85;;;1.73;;
20203;SDS011;10261;49.010;12.034;2023-04-25T01:36:53;3.55;;;2.20;;
20203;SDS011;10261;49.010;12.034;2023-04-25T01:37:55;2.08;;;1.75;;
20203;SDS011;10261;49.010;12.034;2023-04-25T01:38:58;2.88;;;1.98;;
20203;SDS011;10261;49.010;12.034;2023-04-25T01:40:00;2.08;;;1.88;;
20203;SDS011;10261;49.010;12.034;2023-04-25T01:41:03;2.10;;;1.90;;
20203;SDS011;10261;49.010;12.034;2023-04-25T01:42:06;3.65;;;1.95;;
20203;SDS011;10261;49.010;12.034;2023-04-25T01:43:09;7.63;;;2.58;;
20203;SDS011;10261;49.010;12.034;2023-04-25T01:44:13;4.00;;;2.30;;
20203;SDS011;10261;49.010;12.034;2023-04-25T01:45:16;2.97;;;2.30;;
20203;SDS011;10261;49.010;12.034;2023-04-25T01:46:18;2.85;;;1.77;;
20203;SDS011;10261;49.010;12.034;2023-04-25T01:47:21;3.50;;;2.30;;
20203;SDS011;10261;49.010;12.034;2023-04-25T01:48:23;2.60;;;2.35;;
20203;SDS011;10261;49.010;12.034;2023-04-25T01:49:26;3.80;;;2.20;;
20203;SDS011;10261;49.010;12.034;2023-04-25T01:50:28;2.17;;;2.00;;
20203;SDS011;10261;49.010;12.034;2023-04-25T01:51:31;5.40;;;1.73;;
20203;SDS011;10261;49.010;12.034;2023-04-25T01:52:35;4.82;;;2.45;;
20203;SDS011;10261;49.010;12.034;2023-04-25T01:53:38;3.50;;;2.30;;
20203;SDS011;10261;49.010;12.034;2023-04-25T01:54:40;2.47;;;2.03;;
20203;SDS011;10261;49.010;12.034;2023-04-25T01:55:45;3.85;;;2.20;;
20203;SDS011;10261;49.010;12.034;2023-04-25T01:56:49;2.10;;;1.80;;
20203;SDS011;10261;49.010;12.034;2023-04-25T01:57:52;2.30;;;1.90;;
20203;SDS011;10261;49.010;12.034;2023-04-25T01:58:54;4.05;;;2.55;;
20203;SDS011;10261;49.010;12.034;2023-04-25T01:59:59;3.97;;;2.60;;
20203;SDS011;10261;49.010;12.034;2023-04-25T02:01:02;3.28;;;2.70;;
20203;SDS011;10261;49.010;12.034;2023-04-25T02:02:05;3.10;;;2.33;;
20203;SDS011;10261;49.010;12.034;2023-04-25T02:03:07;2.10;;;1.90;;
20203;SDS011;10261;49.010;12.034;2023-04-25T02:04:11;2.70;;;2.35;;
20203;SDS011;10261;49.010;12.034;2023-04-25T02:05:13;2.35;;;2.10;;
20203;SDS011;10261;49.010;12.034;2023-04-25T02:06:16;8.75;;;2.60;;
20203;SDS011;10261;49.010;12.034;2023-04-25T02:07:18;2.65;;;1.98;;
20203;SDS011;10261;49.010;12.034;2023-04-25T02:08:22;2.42;;;1.95;;
20203;SDS011;10261;49.010;12.034;2023-04-25T02:09:24;4.07;;;2.42;;
20203;SDS011;10261;49.010;12.034;2023-04-25T02:10:27;2.38;;;2.08;;
20203;SDS011;10261;49.010;12.034;2023-04-25T02:11:29;5.00;;;2.45;;
20203;SDS011;10261;49.010;12.034;2023-04-25T02:12:32;2.80;;;2.55;;
20203;SDS011;10261;49.010;12.034;2023-04-25T02:13:34;4.85;;;2.30;;
20203;SDS011;10261;49.010;12.034;2023-04-25T02:14:37;3.20;;;2.13;;
20203;SDS011;10261;49.010;12.034;2023-04-25T02:15:39;2.67;;;2.40;;
20203;SDS011;10261;49.010;12.034;2023-04-25T02:16:43;2.40;;;2.20;;
20203;SDS011;10261;49.010;12.034;2023-04-25T02:17:45;4.22;;;2.83;;
20203;SDS011;10261;49.010;12.034;2023-04-25T02:18:48;3.22;;;2.40;;
20203;SDS011;10261;49.010;12.034;2023-04-25T02:19:50;2.40;;;2.17;;
20203;SDS011;10261;49.010;12.034;2023-04-25T02:20:53;2.10;;;1.80;;
20203;SDS011;10261;49.010;12.034;2023-04-25T02:21:55;3.78;;;2.40;;
20203;SDS011;10261;49.010;12.034;2023-04-25T02:22:58;2.42;;;2.22;;
20203;SDS011;10261;49.010;12.034;2023-04-25T02:24:01;2.28;;;2.00;;
20203;SDS011;10261;49.010;12.034;2023-04-25T02:25:05;4.85;;;2.20;;
20203;SDS011;10261;49.010;12.034;2023-04-25T02:26:09;3.60;;;2.47;;
20203;SDS011;10261;49.010;12.034;2023-04-25T02:27:12;1.98;;;1.80;;
20203;SDS011;10261;49.010;12.034;2023-04-25T02:28:14;2.83;;;2.25;;
20203;SDS011;10261;49.010;12.034;2023-04-25T02:29:17;2.45;;;1.85;;
20203;SDS011;10261;49.010;12.034;2023-04-25T02:30:19;2.63;;;2.42;;
20203;SDS011;10261;49.010;12.034;2023-04-25T02:31:22;3.05;;;2.75;;
20203;SDS011;10261;49.010;12.034;2023-04-25T02:32:24;3.50;;;2.15;;
20203;SDS011;10261;49.010;12.034;2023-04-25T02:33:28;2.85;;;2.45;;
20203;SDS011;10261;49.010;12.034;2023-04-25T02:34:30;4.15;;;2.65;;
20203;SDS011;10261;49.010;12.034;2023-04-25T02:35:33;2.40;;;2.17;;
20203;SDS011;10261;49.010;12.034;2023-04-25T02:36:35;2.65;;;2.05;;
20203;SDS011;10261;49.010;12.034;2023-04-25T02:37:38;2.40;;;2.20;;
20203;SDS011;10261;49.010;12.034;2023-04-25T02:38:41;4.78;;;2.33;;
20203;SDS011;10261;49.010;12.034;2023-04-25T02:39:45;2.85;;;2.25;;
20203;SDS011;10261;49.010;12.034;2023-04-25T02:40:47;2.83;;;2.50;;
20203;SDS011;10261;49.010;12.034;2023-04-25T02:41:51;2.53;;;2.08;;
20203;SDS011;10261;49.010;12.034;2023-04-25T02:42:53;5.93;;;2.53;;
20203;SDS011;10261;49.010;12.034;2023-04-25T02:43:56;2.90;;;2.40;;
20203;SDS011;10261;49.010;12.034;2023-04-25T02:44:58;2.70;;;2.50;;
20203;SDS011;10261;49.010;12.034;2023-04-25T02:46:01;3.40;;;2.10;;
20203;SDS011;10261;49.010;12.034;2023-04-25T02:47:03;2.30;;;2.08;;
20203;SDS011;10261;49.010;12.034;2023-04-25T02:48:06;2.30;;;2.10;;
20203;SDS011;10261;49.010;12.034;2023-04-25T02:49:08;3.33;;;2.75;;
20203;SDS011;10261;49.010;12.034;2023-04-25T02:50:11;2.28;;;2.00;;
20203;SDS011;10261;49.010;12.034;2023-04-25T02:51:14;2.58;;;2.35;;
20203;SDS011;10261;49.010;12.034;2023-04-25T02:52:17;2.65;;;2.28;;
20203;SDS011;10261;49.010;12.034;2023-04-25T02:53:20;4.07;;;2.28;;
20203;SDS011;10261;49.010;12.034;2023-04-25T02:54:22;3.53;;;2.55;;
20203;SDS011;10261;49.010;12.034;2023-04-25T02:55:26;2.42;;;2.22;;
20203;SDS011;10261;49.010;12.034;2023-04-25T02:56:28;2.65;;;2.25;;
20203;SDS011;10261;49.010;12.034;2023-04-25T02:57:31;2.47;;;1.92;;
20203;SDS011;10261;49.010;12.034;2023-04-25T02:58:33;3.45;;;2.00;;
20203;SDS011;10261;49.010;12.034;2023-04-25T02:59:36;2.20;;;2.00;;
20203;SDS011;10261;49.010;12.034;2023-04-25T03:00:39;5.55;;;2.50;;
20203;SDS011;10261;49.010;12.034;2023-04-25T03:01:42;2.28;;;2.08;;
20203;SDS011;10261;49.010;12.034;2023-04-25T03:02:44;3.83;;;2.30;;
20203;SDS011;10261;49.010;12.034;2023-04-25T03:03:47;3.25;;;1.88;;
20203;SDS011;10261;49.010;12.034;2023-04-25T03:04:49;3.35;;;2.28;;
20203;SDS011;10261;49.010;12.034;2023-04-25T03:05:52;2.42;;;2.22;;
20203;SDS011;10261;49.010;12.034;2023-04-25T03:06:54;7.18;;;2.45;;
20203;SDS011;10261;49.010;12.034;2023-04-25T03:07:57;4.45;;;2.42;;
20203;SDS011;10261;49.010;12.034;2023-04-25T03:09:00;4.07;;;2.78;;
20203;SDS011;10261;49.010;12.034;2023-04-25T03:10:03;3.00;;;2.70;;
20203;SDS011;10261;49.010;12.034;2023-04-25T03:11:08;3.85;;;2.05;;
20203;SDS011;10261;49.010;12.034;2023-04-25T03:12:11;2.17;;;1.85;;
20203;SDS011;10261;49.010;12.034;2023-04-25T03:13:13;2.25;;;1.90;;
20203;SDS011;10261;49.010;12.034;2023-04-25T03:14:16;4.90;;;2.30;;
20203;SDS011;10261;49.010;12.034;2023-04-25T03:15:18;2.25;;;2.05;;
20203;SDS011;10261;49.010;12.034;2023-04-25T03:16:21;2.70;;;2.00;;
20203;SDS011;10261;49.010;12.034;2023-04-25T03:17:23;2.63;;;2.15;;
20203;SDS011;10261;49.010;12.034;2023-04-25T03:18:26;3.00;;;2.25;;
20203;SDS011;10261;49.010;12.034;2023-04-25T03:19:29;2.55;;;2.25;;
20203;SDS011;10261;49.010;12.034;2023-04-25T03:20:32;1.88;;;1.70;;
20203;SDS011;10261;49.010;12.034;2023-04-25T03:21:35;3.13;;;2.00;;
20203;SDS011;10261;49.010;12.034;2023-04-25T03:22:38;2.45;;;2.22;;
20203;SDS011;10261;49.010;12.034;2023-04-25T03:23:40;2.17;;;1.70;;
20203;SDS011;10261;49.010;12.034;2023-04-25T03:24:43;3.67;;;2.40;;
20203;SDS011;10261;49.010;12.034;2023-04-25T03:25:46;2.10;;;1.70;;
20203;SDS011;10261;49.010;12.034;2023-04-25T03:26:50;4.82;;;2.00;;
20203;SDS011;10261;49.010;12.034;2023-04-25T03:27:53;2.50;;;1.85;;
20203;SDS011;10261;49.010;12.034;2023-04-25T03:28:55;2.35;;;1.98;;
20203;SDS011;10261;49.010;12.034;2023-04-25T03:29:57;2.90;;;2.10;;
20203;SDS011;10261;49.010;12.034;2023-04-25T03:30:59;4.72;;;1.80;;
20203;SDS011;10261;49.010;12.034;2023-04-25T03:32:02;2.13;;;1.90;;
20203;SDS011;10261;49.010;12.034;2023-04-25T03:33:05;2.35;;;2.13;;
20203;SDS011;10261;49.010;12.034;2023-04-25T03:34:08;3.05;;;1.83;;
20203;SDS011;10261;49.010;12.034;2023-04-25T03:35:11;2.72;;;1.85;;
20203;SDS011;10261;49.010;12.034;2023-04-25T03:36:13;2.35;;;2.15;;
20203;SDS011;10261;49.010;12.034;2023-04-25T03:37:16;2.33;;;2.10;;
20203;SDS011;10261;49.010;12.034;2023-04-25T03:38:18;2.25;;;2.00;;
20203;SDS011;10261;49.010;12.034;2023-04-25T03:39:21;2.42;;;1.75;;
20203;SDS011;10261;49.010;12.034;2023-04-25T03:40:23;2.63;;;2.00;;
20203;SDS011;10261;49.010;12.034;2023-04-25T03:41:26;2.80;;;2.03;;
20203;SDS011;10261;49.010;12.034;2023-04-25T03:42:30;2.65;;;2.15;;
20203;SDS011;10261;49.010;12.034;2023-04-25T03:43:33;2.80;;;1.60;;
20203;SDS011;10261;49.010;12.034;2023-04-25T03:44:35;1.90;;;1.63;;
20203;SDS011;10261;49.010;12.034;2023-04-25T03:45:38;1.83;;;1.60;;
20203;SDS011;10261;49.010;12.034;2023-04-25T03:46:40;2.00;;;1.80;;
20203;SDS011;10261;49.010;12.034;2023-04-25T03:47:43;2.40;;;2.17;;
20203;SDS011;10261;49.010;12.034;2023-04-25T03:48:45;4.47;;;2.42;;
20203;SDS011;10261;49.010;12.034;2023-04-25T03:49:48;4.78;;;1.88;;
20203;SDS011;10261;49.010;12.034;2023-04-25T03:50:53;9.32;;;2.00;;
20203;SDS011;10261;49.010;12.034;2023-04-25T03:51:56;2.22;;;2.03;;
20203;SDS011;10261;49.010;12.034;2023-04-25T03:52:58;2.67;;;2.03;;
20203;SDS011;10261;49.010;12.034;2023-04-25T03:54:01;1.50;;;1.40;;
20203;SDS011;10261;49.010;12.034;2023-04-25T03:55:03;3.90;;;1.60;;
20203;SDS011;10261;49.010;12.034;2023-04-25T03:56:07;1.83;;;1.73;;
20203;SDS011;10261;49.010;12.034;2023-04-25T03:57:10;1.95;;;1.80;;
20203;SDS011;10261;49.010;12.034;2023-04-25T03:58:14;3.28;;;1.85;;
20203;SDS011;10261;49.010;12.034;2023-04-25T03:59:16;1.88;;;1.65;;
20203;SDS011;10261;49.010;12.034;2023-04-25T04:00:20;2.35;;;1.88;;
20203;SDS011;10261;49.010;12.034;2023-04-25T04:01:21;1.83;;;1.60;;
20203;SDS011;10261;49.010;12.034;2023-04-25T04:02:24;3.00;;;1.67;;
20203;SDS011;10261;49.010;12.034;2023-04-25T04:03:27;2.70;;;1.80;;
20203;SDS011;10261;49.010;12.034;2023-04-25T04:04:30;2.20;;;1.90;;
20203;SDS011;10261;49.010;12.034;2023-04-25T04:05:32;2.88;;;1.83;;
20203;SDS011;10261;49.010;12.034;2023-04-25T04:06:35;1.92;;;1.73;;
20203;SDS011;10261;49.010;12.034;2023-04-25T04:07:37;1.92;;;1.65;;
20203;SDS011;10261;49.010;12.034;2023-04-25T04:08:41;4.70;;;2.10;;
20203;SDS011;10261;49.010;12.034;2023-04-25T04:09:43;4.70;;;1.80;;
20203;SDS011;10261;49.010;12.034;2023-04-25T04:10:46;1.90;;;1.70;;
20203;SDS011;10261;49.010;12.034;2023-04-25T04:11:48;2.65;;;1.67;;
20203;SDS011;10261;49.010;12.034;2023-04-25T04:12:51;2.58;;;2.03;;
20203;SDS011;10261;49.010;12.034;2023-04-25T04:13:54;1.98;;;1.60;;
20203;SDS011;10261;49.010;12.034;2023-04-25T04:14:57;3.28;;;2.42;;
20203;SDS011;10261;49.010;12.034;2023-04-25T04:15:59;2.20;;;1.70;;
20203;SDS011;10261;49.010;12.034;2023-04-25T04:17:02;3.65;;;1.70;;
20203;SDS011;10261;49.010;12.034;2023-04-25T04:18:05;3.00;;;1.85;;
20203;SDS011;10261;49.010;12.034;2023-04-25T04:19:07;2.78;;;2.30;;
20203;SDS011;10261;49.010;12.034;2023-04-25T04:20:10;2.28;;;1.80;;
20203;SDS011;10261;49.010;12.034;2023-04-25T04:21:12;1.98;;;1.40;;
20203;SDS011;10261;49.010;12.034;2023-04-25T04:22:16;1.75;;;1.65;;
20203;SDS011;10261;49.010;12.034;2023-04-25T04:23:18;2.20;;;1.90;;
20203;SDS011;10261;49.010;12.034;2023-04-25T04:24:21;3.38;;;1.88;;
20203;SDS011;10261;49.010;12.034;2023-04-25T04:25:23;3.25;;;1.40;;
20203;SDS011;10261;49.010;12.034;2023-04-25T04:26:27;2.70;;;1.92;;
20203;SDS011;10261;49.010;12.034;2023-04-25T04:27:30;2.63;;;2.22;;
20203;SDS011;10261;49.010;12.034;2023-04-25T04:28:33;4.03;;;2.00;;
20203;SDS011;10261;49.010;12.034;2023-04-25T04:29:36;2.58;;;1.95;;
20203;SDS011;10261;49.010;12.034;2023-04-25T04:30:39;2.97;;;2.00;;
20203;SDS011;10261;49.010;12.034;2023-04-25T04:31:42;4.10;;;1.60;;
20203;SDS011;10261;49.010;12.034;2023-04-25T04:32:45;1.90;;;1.67;;
20203;SDS011;10261;49.010;12.034;2023-04-25T04:33:50;5.57;;;2.28;;
20203;SDS011;10261;49.010;12.034;2023-04-25T04:34:53;2.03;;;1.50;;
20203;SDS011;10261;49.010;12.034;2023-04-25T04:35:56;3.45;;;2.78;;
20203;SDS011;10261;49.010;12.034;2023-04-25T04:37:00;3.38;;;1.73;;
20203;SDS011;10261;49.010;12.034;2023-04-25T04:38:02;2.65;;;2.10;;
20203;SDS011;10261;49.010;12.034;2023-04-25T04:39:05;6.10;;;1.70;;
20203;SDS011;10261;49.010;12.034;2023-04-25T04:40:07;3.15;;;2.15;;
20203;SDS011;10261;49.010;12.034;2023-04-25T04:41:11;2.05;;;1.80;;
20203;SDS011;10261;49.010;12.034;2023-04-25T04:42:13;2.35;;;2.15;;
20203;SDS011;10261;49.010;12.034;2023-04-25T04:43:16;6.10;;;1.70;;
20203;SDS011;10261;49.010;12.034;2023-04-25T04:44:19;3.30;;;1.70;;
20203;SDS011;10261;49.010;12.034;2023-04-25T04:45:24;2.58;;;2.00;;
20203;SDS011;10261;49.010;12.034;2023-04-25T04:46:28;2.63;;;1.63;;
20203;SDS011;10261;49.010;12.034;2023-04-25T04:47:31;2.50;;;1.52;;
20203;SDS011;10261;49.010;12.034;2023-04-25T04:48:35;1.60;;;1.50;;
20203;SDS011;10261;49.010;12.034;2023-04-25T04:49:37;2.55;;;1.95;;
20203;SDS011;10261;49.010;12.034;2023-04-25T04:50:42;5.18;;;2.35;;
20203;SDS011;10261;49.010;12.034;2023-04-25T04:51:46;1.83;;;1.60;;
20203;SDS011;10261;49.010;12.034;2023-04-25T04:52:50;2.40;;;1.80;;
20203;SDS011;10261;49.010;12.034;2023-04-25T04:53:52;2.10;;;1.60;;
20203;SDS011;10261;49.010;12.034;2023-04-25T04:54:59;2.15;;;1.88;;
20203;SDS011;10261;49.010;12.034;2023-04-25T04:56:01;2.00;;;1.80;;
20203;SDS011;10261;49.010;12.034;2023-04-25T04:57:04;2.20;;;2.00;;
20203;SDS011;10261;49.010;12.034;2023-04-25T04:58:07;2.65;;;1.65;;
20203;SDS011;10261;49.010;12.034;2023-04-25T04:59:10;5.28;;;2.40;;
20203;SDS011;10261;49.010;12.034;2023-04-25T05:00:12;6.85;;;1.60;;
20203;SDS011;10261;49.010;12.034;2023-04-25T05:01:18;2.83;;;1.70;;
20203;SDS011;10261;49.010;12.034;2023-04-25T05:02:20;2.67;;;1.98;;
20203;SDS011;10261;49.010;12.034;2023-04-25T05:03:23;2.60;;;2.00;;
20203;SDS011;10261;49.010;12.034;2023-04-25T05:04:25;2.00;;;1.77;;
20203;SDS011;10261;49.010;12.034;2023-04-25T05:05:28;7.45;;;2.58;;
20203;SDS011;10261;49.010;12.034;2023-04-25T05:06:30;2.33;;;2.13;;
20203;SDS011;10261;49.010;12.034;2023-04-25T05:07:33;2.13;;;1.90;;
20203;SDS011;10261;49.010;12.034;2023-04-25T05:08:36;3.55;;;2.22;;
20203;SDS011;10261;49.010;12.034;2023-04-25T05:09:39;2.88;;;1.45;;
20203;SDS011;10261;49.010;12.034;2023-04-25T05:10:41;2.33;;;2.13;;
20203;SDS011;10261;49.010;12.034;2023-04-25T05:11:44;2.45;;;2.00;;
20203;SDS011;10261;49.010;12.034;2023-04-25T05:12:46;4.38;;;2.38;;
20203;SDS011;10261;49.010;12.034;2023-04-25T05:13:49;6.80;;;2.38;;
20203;SDS011;10261;49.010;12.034;2023-04-25T05:14:53;2.38;;;2.17;;
20203;SDS011;10261;49.010;12.034;2023-04-25T05:15:56;2.78;;;1.98;;
20203;SDS011;10261;49.010;12.034;2023-04-25T05:16:59;3.05;;;2.75;;
20203;SDS011;10261;49.010;12.034;2023-04-25T05:18:02;2.75;;;2.33;;
20203;SDS011;10261;49.010;12.034;2023-04-25T05:19:05;6.72;;;3.00;;
20203;SDS011;10261;49.010;12.034;2023-04-25T05:20:08;2.50;;;2.30;;
20203;SDS011;10261;49.010;12.034;2023-04-25T05:21:10;2.67;;;2.33;;
20203;SDS011;10261;49.010;12.034;2023-04-25T05:22:13;5.38;;;2.88;;
20203;SDS011;10261;49.010;12.034;2023-04-25T05:23:15;2.53;;;2.30;;
20203;SDS011;10261;49.010;12.034;2023-04-25T05:24:18;5.72;;;2.38;;
20203;SDS011;10261;49.010;12.034;2023-04-25T05:25:20;2.72;;;2.33;;
20203;SDS011;10261;49.010;12.034;2023-04-25T05:26:23;6.45;;;3.10;;
20203;SDS011;10261;49.010;12.034;2023-04-25T05:27:25;2.65;;;2.45;;
20203;SDS011;10261;49.010;12.034;2023-04-25T05:28:28;5.38;;;2.78;;
20203;SDS011;10261;49.010;12.034;2023-04-25T05:29:30;4.50;;;3.20;;
20203;SDS011;10261;49.010;12.034;2023-04-25T05:30:33;3.55;;;2.70;;
20203;SDS011;10261;49.010;12.034;2023-04-25T05:31:36;2.80;;;2.60;;
20203;SDS011;10261;49.010;12.034;2023-04-25T05:32:40;2.78;;;2.58;;
20203;SDS011;10261;49.010;12.034;2023-04-25T05:33:42;3.17;;;2.88;;
20203;SDS011;10261;49.010;12.034;2023-04-25T05:34:45;3.70;;;2.50;;
20203;SDS011;10261;49.010;12.034;2023-04-25T05:35:48;2.97;;;2.67;;
20203;SDS011;10261;49.010;12.034;2023-04-25T05:36:51;3.28;;;2.47;;
20203;SDS011;10261;49.010;12.034;2023-04-25T05:37:54;4.03;;;3.45;;
20203;SDS011;10261;49.010;12.034;2023-04-25T05:38:56;2.85;;;2.45;;
20203;SDS011;10261;49.010;12.034;2023-04-25T05:39:59;5.70;;;2.60;;
20203;SDS011;10261;49.010;12.034;2023-04-25T05:41:02;3.22;;;2.80;;
20203;SDS011;10261;49.010;12.034;2023-04-25T05:42:04;3.50;;;3.20;;
20203;SDS011;10261;49.010;12.034;2023-04-25T05:43:07;5.70;;;3.22;;
20203;SDS011;10261;49.010;12.034;2023-04-25T05:44:09;3.78;;;3.47;;
20203;SDS011;10261;49.010;12.034;2023-04-25T05:45:12;3.67;;;2.50;;
20203;SDS011;10261;49.010;12.034;2023-04-25T05:46:15;3.28;;;2.67;;
20203;SDS011;10261;49.010;12.034;2023-04-25T05:47:18;2.72;;;2.53;;
20203;SDS011;10261;49.010;12.034;2023-04-25T05:48:23;3.45;;;2.70;;
20203;SDS011;10261;49.010;12.034;2023-04-25T05:49:25;2.90;;;2.50;;
20203;SDS011;10261;49.010;12.034;2023-04-25T05:50:28;3.95;;;2.22;;
20203;SDS011;10261;49.010;12.034;2023-04-25T05:51:29;4.43;;;2.45;;
20203;SDS011;10261;49.010;12.034;2023-04-25T05:52:33;2.85;;;2.30;;
20203;SDS011;10261;49.010;12.034;2023-04-25T05:53:35;3.30;;;2.35;;
20203;SDS011;10261;49.010;12.034;2023-04-25T05:54:38;2.72;;;2.50;;
20203;SDS011;10261;49.010;12.034;2023-04-25T05:55:40;5.13;;;2.40;;
20203;SDS011;10261;49.010;12.034;2023-04-25T05:56:43;2.47;;;2.20;;
20203;SDS011;10261;49.010;12.034;2023-04-25T05:57:45;3.78;;;2.53;;
20203;SDS011;10261;49.010;12.034;2023-04-25T05:58:50;2.83;;;2.10;;
20203;SDS011;10261;49.010;12.034;2023-04-25T05:59:53;3.90;;;2.88;;
20203;SDS011;10261;49.010;12.034;2023-04-25T06:00:56;2.50;;;2.20;;
20203;SDS011;10261;49.010;12.034;2023-04-25T06:01:58;4.07;;;2.20;;
20203;SDS011;10261;49.010;12.034;2023-04-25T06:03:02;2.25;;;1.90;;
20203;SDS011;10261;49.010;12.034;2023-04-25T06:04:06;2.75;;;2.45;;
20203;SDS011;10261;49.010;12.034;2023-04-25T06:05:11;2.90;;;2.55;;
20203;SDS011;10261;49.010;12.034;2023-04-25T06:06:14;3.25;;;2.03;;
20203;SDS011;10261;49.010;12.034;2023-04-25T06:07:17;4.45;;;2.30;;
20203;SDS011;10261;49.010;12.034;2023-04-25T06:08:21;2.30;;;1.85;;
20203;SDS011;10261;49.010;12.034;2023-04-25T06:09:23;2.55;;;1.98;;
20203;SDS011;10261;49.010;12.034;2023-04-25T06:10:28;4.13;;;2.22;;
20203;SDS011;10261;49.010;12.034;2023-04-25T06:11:30;3.50;;;2.35;;
20203;SDS011;10261;49.010;12.034;2023-04-25T06:12:33;2.40;;;2.10;;
20203;SDS011;10261;49.010;12.034;2023-04-25T06:13:36;3.92;;;2.35;;